sensor_id;sensor_type;location;lat;lon;timestamp;P1;durP1;ratioP1;P2;durP2;ratioP2
30420;SDS011;17218;54.070;10.012;2023-04-25T00:01:04;16.60;;;3.95;;
30420;SDS011;17218;54.070;10.012;2023-04-25T00:03:31;18.13;;;3.90;;
30420;SDS011;17218;54.070;10.012;2023-04-25T00:05:59;10.75;;;4.07;;
30420;SDS011;17218;54.070;10.012;2023-04-25T00:08:27;11.60;;;4.03;;
30420;SDS011;17218;54.070;10.012;2023-04-25T00:10:54;16.83;;;4.28;;
30420;SDS011;17218;54.070;10.012;2023-04-25T00:13:21;12.55;;;3.70;;
30420;SDS011;17218;54.070;10.012;2023-04-25T00:15:47;11.73;;;4.20;;
30420;SDS011;17218;54.070;10.012;2023-04-25T00:18:18;13.97;;;3.83;;
30420;SDS011;17218;54.070;10.012;2023-04-25T00:20:45;15.85;;;4.93;;
30420;SDS011;17218;54.070;10.012;2023-04-25T00:23:13;13.88;;;4.50;;
30420;SDS011;17218;54.070;10.012;2023-04-25T00:25:42;14.05;;;3.47;;
30420;SDS011;17218;54.070;10.012;2023-04-25T00:28:09;16.42;;;3.58;;
30420;SDS011;17218;54.070;10.012;2023-04-25T00:30:35;17.75;;;3.78;;
30420;SDS011;17218;54.070;10.012;2023-04-25T00:33:02;22.92;;;4.38;;
30420;SDS011;17218;54.070;10.012;2023-04-25T00:35:28;14.07;;;3.80;;
30420;SDS011;17218;54.070;10.012;2023-04-25T00:37:55;16.87;;;4.13;;
30420;SDS011;17218;54.070;10.012;2023-04-25T00:40:23;21.60;;;4.60;;
30420;SDS011;17218;54.070;10.012;2023-04-25T00:42:50;11.95;;;3.85;;
30420;SDS011;17218;54.070;10.012;2023-04-25T00:45:18;15.82;;;3.70;;
30420;SDS011;17218;54.070;10.012;2023-04-25T00:47:45;18.55;;;3.67;;
30420;SDS011;17218;54.070;10.012;2023-04-25T00:50:12;19.13;;;3.83;;
30420;SDS011;17218;54.070;10.012;2023-04-25T00:52:39;14.77;;;4.03;;
30420;SDS011;17218;54.070;10.012;2023-04-25T00:55:09;11.20;;;3.70;;
30420;SDS011;17218;54.070;10.012;2023-04-25T00:57:38;17.40;;;4.68;;
30420;SDS011;17218;54.070;10.012;2023-04-25T01:00:05;17.30;;;5.07;;
30420;SDS011;17218;54.070;10.012;2023-04-25T01:02:34;12.33;;;3.77;;
30420;SDS011;17218;54.070;10.012;2023-04-25T01:05:01;12.18;;;3.58;;
30420;SDS011;17218;54.070;10.012;2023-04-25T01:07:28;14.17;;;3.90;;
30420;SDS011;17218;54.070;10.012;2023-04-25T01:09:55;13.88;;;3.50;;
30420;SDS011;17218;54.070;10.012;2023-04-25T01:12:22;12.80;;;3.55;;
30420;SDS011;17218;54.070;10.012;2023-04-25T01:14:50;18.08;;;4.53;;
30420;SDS011;17218;54.070;10.012;2023-04-25T01:17:17;20.98;;;4.18;;
30420;SDS011;17218;54.070;10.012;2023-04-25T01:19:44;11.38;;;3.92;;
30420;SDS011;17218;54.070;10.012;2023-04-25T01:22:12;16.63;;;4.00;;
30420;SDS011;17218;54.070;10.012;2023-04-25T01:24:39;14.33;;;3.77;;
30420;SDS011;17218;54.070;10.012;2023-04-25T01:27:06;18.77;;;4.43;;
30420;SDS011;17218;54.070;10.012;2023-04-25T01:29:33;12.95;;;3.28;;
30420;SDS011;17218;54.070;10.012;2023-04-25T01:32:03;17.77;;;3.80;;
30420;SDS011;17218;54.070;10.012;2023-04-25T01:34:30;16.17;;;3.50;;
30420;SDS011;17218;54.070;10.012;2023-04-25T01:36:56;17.10;;;3.83;;
30420;SDS011;17218;54.070;10.012;2023-04-25T01:39:27;21.17;;;4.80;;
30420;SDS011;17218;54.070;10.012;2023-04-25T01:41:54;15.37;;;4.33;;
30420;SDS011;17218;54.070;10.012;2023-04-25T01:44:20;12.33;;;4.20;;
30420;SDS011;17218;54.070;10.012;2023-04-25T01:46:47;18.60;;;3.73;;
30420;SDS011;17218;54.070;10.012;2023-04-25T01:49:13;17.27;;;4.23;;
30420;SDS011;17218;54.070;10.012;2023-04-25T01:51:40;14.50;;;3.57;;
30420;SDS011;17218;54.070;10.012;2023-04-25T01:54:07;12.20;;;4.33;;
30420;SDS011;17218;54.070;10.012;2023-04-25T01:56:37;15.50;;;4.07;;
30420;SDS011;17218;54.070;10.012;2023-04-25T01:59:04;17.50;;;4.67;;
30420;SDS011;17218;54.070;10.012;2023-04-25T02:01:31;17.50;;;4.17;;
30420;SDS011;17218;54.070;10.012;2023-04-25T02:03:58;17.97;;;4.83;;
30420;SDS011;17218;54.070;10.012;2023-04-25T02:06:24;23.50;;;4.13;;
30420;SDS011;17218;54.070;10.012;2023-04-25T02:08:51;14.63;;;4.47;;
30420;SDS011;17218;54.070;10.012;2023-04-25T02:11:17;14.67;;;4.13;;
30420;SDS011;17218;54.070;10.012;2023-04-25T02:13:45;18.83;;;4.23;;
30420;SDS011;17218;54.070;10.012;2023-04-25T02:16:12;14.17;;;3.63;;
30420;SDS011;17218;54.070;10.012;2023-04-25T02:18:38;16.20;;;4.97;;
30420;SDS011;17218;54.070;10.012;2023-04-25T02:21:05;18.20;;;3.33;;
30420;SDS011;17218;54.070;10.012;2023-04-25T02:23:32;19.17;;;4.27;;
30420;SDS011;17218;54.070;10.012;2023-04-25T02:25:59;14.03;;;3.70;;
30420;SDS011;17218;54.070;10.012;2023-04-25T02:28:25;14.60;;;4.10;;
30420;SDS011;17218;54.070;10.012;2023-04-25T02:30:53;19.53;;;4.13;;
30420;SDS011;17218;54.070;10.012;2023-04-25T02:33:20;15.60;;;4.30;;
30420;SDS011;17218;54.070;10.012;2023-04-25T02:35:47;18.30;;;3.83;;
30420;SDS011;17218;54.070;10.012;2023-04-25T02:38:13;16.93;;;3.83;;
30420;SDS011;17218;54.070;10.012;2023-04-25T02:40:40;15.80;;;4.30;;
30420;SDS011;17218;54.070;10.012;2023-04-25T02:43:07;11.47;;;4.37;;
30420;SDS011;17218;54.070;10.012;2023-04-25T02:45:33;15.77;;;3.90;;
30420;SDS011;17218;54.070;10.012;2023-04-25T02:48:01;30.53;;;4.77;;
30420;SDS011;17218;54.070;10.012;2023-04-25T02:50:28;14.33;;;3.67;;
30420;SDS011;17218;54.070;10.012;2023-04-25T02:52:54;15.33;;;4.30;;
30420;SDS011;17218;54.070;10.012;2023-04-25T02:55:21;11.37;;;3.60;;
30420;SDS011;17218;54.070;10.012;2023-04-25T02:57:47;17.80;;;4.37;;
30420;SDS011;17218;54.070;10.012;2023-04-25T03:00:14;18.27;;;4.03;;
30420;SDS011;17218;54.070;10.012;2023-04-25T03:02:41;12.53;;;3.27;;
30420;SDS011;17218;54.070;10.012;2023-04-25T03:05:09;16.47;;;3.50;;
30420;SDS011;17218;54.070;10.012;2023-04-25T03:07:35;15.60;;;3.43;;
30420;SDS011;17218;54.070;10.012;2023-04-25T03:10:02;9.70;;;3.27;;
30420;SDS011;17218;54.070;10.012;2023-04-25T03:12:28;15.67;;;4.00;;
30420;SDS011;17218;54.070;10.012;2023-04-25T03:14:55;16.77;;;3.37;;
30420;SDS011;17218;54.070;10.012;2023-04-25T03:17:21;12.00;;;3.77;;
30420;SDS011;17218;54.070;10.012;2023-04-25T03:19:48;16.70;;;4.07;;
30420;SDS011;17218;54.070;10.012;2023-04-25T03:22:16;17.10;;;3.73;;
30420;SDS011;17218;54.070;10.012;2023-04-25T03:24:42;11.63;;;3.10;;
30420;SDS011;17218;54.070;10.012;2023-04-25T03:27:09;15.53;;;4.33;;
30420;SDS011;17218;54.070;10.012;2023-04-25T03:29:35;17.20;;;3.30;;
30420;SDS011;17218;54.070;10.012;2023-04-25T03:32:02;22.00;;;4.20;;
30420;SDS011;17218;54.070;10.012;2023-04-25T03:34:28;16.23;;;4.00;;
30420;SDS011;17218;54.070;10.012;2023-04-25T03:36:54;14.53;;;4.50;;
30420;SDS011;17218;54.070;10.012;2023-04-25T03:39:22;18.10;;;3.30;;
30420;SDS011;17218;54.070;10.012;2023-04-25T03:41:49;18.57;;;3.67;;
30420;SDS011;17218;54.070;10.012;2023-04-25T03:44:15;11.80;;;3.27;;
30420;SDS011;17218;54.070;10.012;2023-04-25T03:46:42;12.80;;;3.30;;
30420;SDS011;17218;54.070;10.012;2023-04-25T03:49:08;15.50;;;3.30;;
30420;SDS011;17218;54.070;10.012;2023-04-25T03:51:35;14.03;;;3.17;;
30420;SDS011;17218;54.070;10.012;2023-04-25T03:54:01;16.27;;;4.43;;
30420;SDS011;17218;54.070;10.012;2023-04-25T03:56:29;15.97;;;3.90;;
30420;SDS011;17218;54.070;10.012;2023-04-25T03:58:56;18.20;;;3.57;;
30420;SDS011;17218;54.070;10.012;2023-04-25T04:01:22;16.40;;;3.07;;
30420;SDS011;17218;54.070;10.012;2023-04-25T04:03:49;15.03;;;3.07;;
30420;SDS011;17218;54.070;10.012;2023-04-25T04:06:15;14.23;;;3.93;;
30420;SDS011;17218;54.070;10.012;2023-04-25T04:08:42;11.70;;;2.77;;
30420;SDS011;17218;54.070;10.012;2023-04-25T04:11:09;17.27;;;3.83;;
30420;SDS011;17218;54.070;10.012;2023-04-25T04:13:37;16.40;;;4.20;;
30420;SDS011;17218;54.070;10.012;2023-04-25T04:16:03;15.30;;;3.13;;
30420;SDS011;17218;54.070;10.012;2023-04-25T04:18:30;13.30;;;3.03;;
30420;SDS011;17218;54.070;10.012;2023-04-25T04:20:58;11.93;;;3.07;;
30420;SDS011;17218;54.070;10.012;2023-04-25T04:23:24;9.50;;;3.13;;
30420;SDS011;17218;54.070;10.012;2023-04-25T04:25:52;10.67;;;3.10;;
30420;SDS011;17218;54.070;10.012;2023-04-25T04:28:19;18.30;;;3.43;;
30420;SDS011;17218;54.070;10.012;2023-04-25T04:30:46;18.80;;;2.83;;
30420;SDS011;17218;54.070;10.012;2023-04-25T04:33:16;14.67;;;4.23;;
30420;SDS011;17218;54.070;10.012;2023-04-25T04:35:43;12.73;;;3.27;;
30420;SDS011;17218;54.070;10.012;2023-04-25T04:38:11;7.83;;;3.00;;
30420;SDS011;17218;54.070;10.012;2023-04-25T04:40:40;7.77;;;3.10;;
30420;SDS011;17218;54.070;10.012;2023-04-25T04:43:06;14.53;;;4.83;;
30420;SDS011;17218;54.070;10.012;2023-04-25T04:45:33;10.70;;;2.97;;
30420;SDS011;17218;54.070;10.012;2023-04-25T04:48:01;7.60;;;2.37;;
30420;SDS011;17218;54.070;10.012;2023-04-25T04:50:30;15.17;;;3.40;;
30420;SDS011;17218;54.070;10.012;2023-04-25T04:52:57;17.40;;;3.00;;
30420;SDS011;17218;54.070;10.012;2023-04-25T04:55:24;13.83;;;3.50;;
30420;SDS011;17218;54.070;10.012;2023-04-25T04:57:50;13.73;;;3.37;;
30420;SDS011;17218;54.070;10.012;2023-04-25T05:00:17;13.20;;;3.23;;
30420;SDS011;17218;54.070;10.012;2023-04-25T05:02:43;21.23;;;3.17;;
30420;SDS011;17218;54.070;10.012;2023-04-25T05:05:11;15.77;;;3.33;;
30420;SDS011;17218;54.070;10.012;2023-04-25T05:07:37;9.90;;;3.20;;
30420;SDS011;17218;54.070;10.012;2023-04-25T05:10:04;12.23;;;3.20;;
30420;SDS011;17218;54.070;10.012;2023-04-25T05:12:32;14.73;;;3.60;;
30420;SDS011;17218;54.070;10.012;2023-04-25T05:14:58;10.60;;;3.13;;
30420;SDS011;17218;54.070;10.012;2023-04-25T05:17:25;12.30;;;2.97;;
30420;SDS011;17218;54.070;10.012;2023-04-25T05:19:51;12.60;;;2.93;;
30420;SDS011;17218;54.070;10.012;2023-04-25T05:22:19;20.90;;;4.33;;
30420;SDS011;17218;54.070;10.012;2023-04-25T05:24:46;11.67;;;3.10;;
30420;SDS011;17218;54.070;10.012;2023-04-25T05:27:13;15.67;;;3.10;;
30420;SDS011;17218;54.070;10.012;2023-04-25T05:29:40;17.20;;;4.20;;
30420;SDS011;17218;54.070;10.012;2023-04-25T05:32:06;18.67;;;3.77;;
30420;SDS011;17218;54.070;10.012;2023-04-25T05:34:33;9.60;;;2.40;;
30420;SDS011;17218;54.070;10.012;2023-04-25T05:36:59;13.40;;;3.27;;
30420;SDS011;17218;54.070;10.012;2023-04-25T05:39:27;12.43;;;3.40;;
30420;SDS011;17218;54.070;10.012;2023-04-25T05:41:54;11.87;;;2.83;;
30420;SDS011;17218;54.070;10.012;2023-04-25T05:44:21;9.95;;;2.92;;
30420;SDS011;17218;54.070;10.012;2023-04-25T05:46:47;10.93;;;2.63;;
30420;SDS011;17218;54.070;10.012;2023-04-25T05:49:14;9.10;;;3.43;;
30420;SDS011;17218;54.070;10.012;2023-04-25T05:51:40;10.33;;;3.17;;
30420;SDS011;17218;54.070;10.012;2023-04-25T05:54:07;18.13;;;3.40;;
30420;SDS011;17218;54.070;10.012;2023-04-25T05:56:34;12.80;;;3.03;;
30420;SDS011;17218;54.070;10.012;2023-04-25T05:59:01;14.13;;;3.10;;
30420;SDS011;17218;54.070;10.012;2023-04-25T06:01:28;11.90;;;2.90;;
30420;SDS011;17218;54.070;10.012;2023-04-25T06:03:56;8.83;;;2.93;;
30420;SDS011;17218;54.070;10.012;2023-04-25T06:06:22;13.43;;;3.07;;
30420;SDS011;17218;54.070;10.012;2023-04-25T06:08:49;10.63;;;2.35;;
30420;SDS011;17218;54.070;10.012;2023-04-25T06:11:15;6.53;;;2.50;;
30420;SDS011;17218;54.070;10.012;2023-04-25T06:13:43;11.27;;;2.78;;
30420;SDS011;17218;54.070;10.012;2023-04-25T06:16:10;11.00;;;2.70;;
30420;SDS011;17218;54.070;10.012;2023-04-25T06:18:36;10.67;;;3.33;;
30420;SDS011;17218;54.070;10.012;2023-04-25T06:21:03;10.65;;;2.65;;
30420;SDS011;17218;54.070;10.012;2023-04-25T06:23:29;8.73;;;2.10;;
30420;SDS011;17218;54.070;10.012;2023-04-25T06:25:56;10.23;;;2.93;;
30420;SDS011;17218;54.070;10.012;2023-04-25T06:28:22;9.37;;;2.40;;
30420;SDS011;17218;54.070;10.012;2023-04-25T06:30:50;9.43;;;2.57;;
30420;SDS011;17218;54.070;10.012;2023-04-25T06:33:17;12.07;;;3.13;;
30420;SDS011;17218;54.070;10.012;2023-04-25T06:35:43;8.67;;;2.27;;
30420;SDS011;17218;54.070;10.012;2023-04-25T06:38:10;12.20;;;3.05;;
30420;SDS011;17218;54.070;10.012;2023-04-25T06:40:37;7.87;;;2.07;;
30420;SDS011;17218;54.070;10.012;2023-04-25T06:43:03;8.20;;;2.50;;
30420;SDS011;17218;54.070;10.012;2023-04-25T06:45:30;10.70;;;2.60;;
30420;SDS011;17218;54.070;10.012;2023-04-25T06:47:58;8.90;;;2.53;;
30420;SDS011;17218;54.070;10.012;2023-04-25T06:50:24;13.67;;;2.50;;
30420;SDS011;17218;54.070;10.012;2023-04-25T06:52:51;14.40;;;2.93;;
30420;SDS011;17218;54.070;10.012;2023-04-25T06:55:17;8.60;;;2.10;;
30420;SDS011;17218;54.070;10.012;2023-04-25T06:57:44;7.87;;;2.00;;
30420;SDS011;17218;54.070;10.012;2023-04-25T07:00:11;7.50;;;2.67;;
30420;SDS011;17218;54.070;10.012;2023-04-25T07:02:38;10.50;;;2.08;;
30420;SDS011;17218;54.070;10.012;2023-04-25T07:05:09;7.30;;;2.30;;
30420;SDS011;17218;54.070;10.012;2023-04-25T07:07:35;9.15;;;2.20;;
30420;SDS011;17218;54.070;10.012;2023-04-25T07:10:02;9.05;;;2.13;;
30420;SDS011;17218;54.070;10.012;2023-04-25T07:12:28;15.15;;;2.78;;
30420;SDS011;17218;54.070;10.012;2023-04-25T07:14:55;7.07;;;1.98;;
30420;SDS011;17218;54.070;10.012;2023-04-25T07:17:21;11.68;;;2.38;;
30420;SDS011;17218;54.070;10.012;2023-04-25T07:19:48;11.23;;;2.35;;
30420;SDS011;17218;54.070;10.012;2023-04-25T07:22:16;13.52;;;2.65;;
30420;SDS011;17218;54.070;10.012;2023-04-25T07:24:42;10.93;;;2.30;;
30420;SDS011;17218;54.070;10.012;2023-04-25T07:27:12;10.80;;;2.63;;
30420;SDS011;17218;54.070;10.012;2023-04-25T07:29:38;10.77;;;2.78;;
30420;SDS011;17218;54.070;10.012;2023-04-25T07:32:05;11.73;;;2.47;;
30420;SDS011;17218;54.070;10.012;2023-04-25T07:34:32;9.48;;;2.13;;
30420;SDS011;17218;54.070;10.012;2023-04-25T07:37:02;9.68;;;2.67;;
30420;SDS011;17218;54.070;10.012;2023-04-25T07:39:30;7.82;;;2.30;;
30420;SDS011;17218;54.070;10.012;2023-04-25T07:41:56;9.82;;;2.47;;
30420;SDS011;17218;54.070;10.012;2023-04-25T07:44:23;11.30;;;2.65;;
30420;SDS011;17218;54.070;10.012;2023-04-25T07:46:50;9.00;;;2.35;;
30420;SDS011;17218;54.070;10.012;2023-04-25T07:49:16;9.93;;;2.13;;
30420;SDS011;17218;54.070;10.012;2023-04-25T07:51:43;10.98;;;3.33;;
30420;SDS011;17218;54.070;10.012;2023-04-25T07:54:12;8.30;;;3.10;;
30420;SDS011;17218;54.070;10.012;2023-04-25T07:56:42;11.32;;;3.05;;
30420;SDS011;17218;54.070;10.012;2023-04-25T07:59:08;8.32;;;2.28;;
30420;SDS011;17218;54.070;10.012;2023-04-25T08:01:35;13.27;;;2.60;;
30420;SDS011;17218;54.070;10.012;2023-04-25T08:04:02;8.20;;;2.08;;
30420;SDS011;17218;54.070;10.012;2023-04-25T08:06:28;10.02;;;2.30;;
30420;SDS011;17218;54.070;10.012;2023-04-25T08:08:56;11.77;;;2.38;;
30420;SDS011;17218;54.070;10.012;2023-04-25T08:11:22;13.00;;;2.67;;
30420;SDS011;17218;54.070;10.012;2023-04-25T08:13:50;7.93;;;2.70;;
30420;SDS011;17218;54.070;10.012;2023-04-25T08:16:17;12.07;;;4.25;;
30420;SDS011;17218;54.070;10.012;2023-04-25T08:18:43;11.02;;;2.17;;
30420;SDS011;17218;54.070;10.012;2023-04-25T08:21:09;7.18;;;1.95;;
30420;SDS011;17218;54.070;10.012;2023-04-25T08:23:37;6.00;;;1.90;;
30420;SDS011;17218;54.070;10.012;2023-04-25T08:26:03;7.03;;;2.22;;
30420;SDS011;17218;54.070;10.012;2023-04-25T08:28:30;11.82;;;2.80;;
30420;SDS011;17218;54.070;10.012;2023-04-25T08:30:58;7.45;;;2.10;;
30420;SDS011;17218;54.070;10.012;2023-04-25T08:33:25;7.38;;;2.38;;
30420;SDS011;17218;54.070;10.012;2023-04-25T08:35:52;6.28;;;2.03;;
30420;SDS011;17218;54.070;10.012;2023-04-25T08:38:18;8.23;;;2.85;;
30420;SDS011;17218;54.070;10.012;2023-04-25T08:40:45;10.90;;;4.22;;
30420;SDS011;17218;54.070;10.012;2023-04-25T08:43:15;5.95;;;1.77;;
30420;SDS011;17218;54.070;10.012;2023-04-25T08:45:43;6.18;;;1.70;;
30420;SDS011;17218;54.070;10.012;2023-04-25T08:48:12;8.82;;;1.95;;
30420;SDS011;17218;54.070;10.012;2023-04-25T08:50:40;13.57;;;2.95;;
30420;SDS011;17218;54.070;10.012;2023-04-25T08:53:11;11.43;;;2.25;;
30420;SDS011;17218;54.070;10.012;2023-04-25T08:55:42;8.38;;;1.83;;
30420;SDS011;17218;54.070;10.012;2023-04-25T08:58:11;7.80;;;2.63;;
30420;SDS011;17218;54.070;10.012;2023-04-25T09:00:38;7.60;;;2.10;;
30420;SDS011;17218;54.070;10.012;2023-04-25T09:03:05;8.02;;;1.90;;
30420;SDS011;17218;54.070;10.012;2023-04-25T09:05:33;7.85;;;2.15;;
30420;SDS011;17218;54.070;10.012;2023-04-25T09:08:00;6.65;;;1.65;;
30420;SDS011;17218;54.070;10.012;2023-04-25T09:10:27;6.45;;;2.35;;
30420;SDS011;17218;54.070;10.012;2023-04-25T09:13:03;6.53;;;2.03;;
30420;SDS011;17218;54.070;10.012;2023-04-25T09:15:31;8.60;;;1.88;;
30420;SDS011;17218;54.070;10.012;2023-04-25T09:17:58;7.25;;;1.90;;
30420;SDS011;17218;54.070;10.012;2023-04-25T09:20:25;8.40;;;2.08;;
30420;SDS011;17218;54.070;10.012;2023-04-25T09:23:02;7.57;;;1.60;;
30420;SDS011;17218;54.070;10.012;2023-04-25T09:25:33;6.55;;;2.10;;
30420;SDS011;17218;54.070;10.012;2023-04-25T09:28:03;4.72;;;1.33;;
30420;SDS011;17218;54.070;10.012;2023-04-25T09:30:31;2.88;;;1.25;;
30420;SDS011;17218;54.070;10.012;2023-04-25T09:33:05;5.55;;;1.13;;
30420;SDS011;17218;54.070;10.012;2023-04-25T09:35:36;6.68;;;1.48;;
30420;SDS011;17218;54.070;10.012;2023-04-25T09:38:09;5.68;;;1.65;;
30420;SDS011;17218;54.070;10.012;2023-04-25T09:40:40;11.82;;;1.80;;
30420;SDS011;17218;54.070;10.012;2023-04-25T09:43:10;6.38;;;1.67;;
30420;SDS011;17218;54.070;10.012;2023-04-25T09:45:44;6.47;;;1.52;;
30420;SDS011;17218;54.070;10.012;2023-04-25T09:48:12;4.85;;;1.20;;
30420;SDS011;17218;54.070;10.012;2023-04-25T09:50:43;3.95;;;1.50;;
30420;SDS011;17218;54.070;10.012;2023-04-25T09:53:11;5.93;;;1.13;;
30420;SDS011;17218;54.070;10.012;2023-04-25T09:55:38;2.03;;;0.80;;
30420;SDS011;17218;54.070;10.012;2023-04-25T09:58:05;4.45;;;1.20;;
30420;SDS011;17218;54.070;10.012;2023-04-25T10:00:32;5.03;;;1.30;;
30420;SDS011;17218;54.070;10.012;2023-04-25T10:03:00;6.57;;;1.42;;
30420;SDS011;17218;54.070;10.012;2023-04-25T10:05:30;7.30;;;1.52;;
30420;SDS011;17218;54.070;10.012;2023-04-25T10:07:58;4.22;;;1.45;;
30420;SDS011;17218;54.070;10.012;2023-04-25T10:10:28;9.27;;;1.67;;
30420;SDS011;17218;54.070;10.012;2023-04-25T10:13:00;5.60;;;2.15;;
30420;SDS011;17218;54.070;10.012;2023-04-25T10:15:30;6.25;;;2.10;;
30420;SDS011;17218;54.070;10.012;2023-04-25T10:17:57;12.75;;;1.92;;
30420;SDS011;17218;54.070;10.012;2023-04-25T10:20:24;7.35;;;1.67;;
30420;SDS011;17218;54.070;10.012;2023-04-25T10:22:51;7.22;;;2.35;;
30420;SDS011;17218;54.070;10.012;2023-04-25T10:25:21;8.52;;;2.40;;
30420;SDS011;17218;54.070;10.012;2023-04-25T10:27:51;10.20;;;1.88;;
30420;SDS011;17218;54.070;10.012;2023-04-25T10:30:17;8.70;;;2.15;;
30420;SDS011;17218;54.070;10.012;2023-04-25T10:32:44;4.65;;;1.70;;
30420;SDS011;17218;54.070;10.012;2023-04-25T10:35:12;6.88;;;1.80;;
30420;SDS011;17218;54.070;10.012;2023-04-25T10:40:29;6.72;;;1.52;;
30420;SDS011;17218;54.070;10.012;2023-04-25T10:43:32;5.93;;;1.45;;
30420;SDS011;17218;54.070;10.012;2023-04-25T10:46:02;8.55;;;1.70;;
30420;SDS011;17218;54.070;10.012;2023-04-25T10:48:38;6.32;;;1.73;;
30420;SDS011;17218;54.070;10.012;2023-04-25T10:51:11;8.20;;;1.90;;
30420;SDS011;17218;54.070;10.012;2023-04-25T10:53:43;9.20;;;1.73;;
30420;SDS011;17218;54.070;10.012;2023-04-25T10:56:10;7.32;;;1.67;;
30420;SDS011;17218;54.070;10.012;2023-04-25T10:58:42;9.10;;;1.55;;
30420;SDS011;17218;54.070;10.012;2023-04-25T11:01:09;4.78;;;1.48;;
30420;SDS011;17218;54.070;10.012;2023-04-25T11:03:38;6.18;;;1.20;;
30420;SDS011;17218;54.070;10.012;2023-04-25T11:06:06;4.13;;;1.42;;
30420;SDS011;17218;54.070;10.012;2023-04-25T11:08:43;2.17;;;0.90;;
30420;SDS011;17218;54.070;10.012;2023-04-25T11:11:14;4.18;;;1.33;;
30420;SDS011;17218;54.070;10.012;2023-04-25T11:13:43;5.20;;;1.37;;
30420;SDS011;17218;54.070;10.012;2023-04-25T11:16:09;4.43;;;1.10;;
30420;SDS011;17218;54.070;10.012;2023-04-25T11:18:36;4.00;;;0.90;;
30420;SDS011;17218;54.070;10.012;2023-04-25T11:21:03;3.57;;;1.30;;
30420;SDS011;17218;54.070;10.012;2023-04-25T11:23:30;4.40;;;1.60;;
30420;SDS011;17218;54.070;10.012;2023-04-25T11:25:57;5.40;;;1.42;;
30420;SDS011;17218;54.070;10.012;2023-04-25T11:28:25;4.78;;;1.33;;
30420;SDS011;17218;54.070;10.012;2023-04-25T11:30:53;6.97;;;1.88;;
30420;SDS011;17218;54.070;10.012;2023-04-25T11:33:22;3.30;;;1.35;;
30420;SDS011;17218;54.070;10.012;2023-04-25T11:35:49;6.72;;;1.30;;
30420;SDS011;17218;54.070;10.012;2023-04-25T11:38:16;5.28;;;1.38;;
30420;SDS011;17218;54.070;10.012;2023-04-25T11:40:42;5.30;;;1.67;;
30420;SDS011;17218;54.070;10.012;2023-04-25T11:43:09;3.40;;;1.23;;
30420;SDS011;17218;54.070;10.012;2023-04-25T11:45:36;6.18;;;1.20;;
30420;SDS011;17218;54.070;10.012;2023-04-25T11:48:04;5.93;;;1.48;;
30420;SDS011;17218;54.070;10.012;2023-04-25T11:50:31;7.93;;;1.27;;
30420;SDS011;17218;54.070;10.012;2023-04-25T11:52:57;7.35;;;1.30;;
30420;SDS011;17218;54.070;10.012;2023-04-25T11:55:24;3.25;;;1.30;;
30420;SDS011;17218;54.070;10.012;2023-04-25T11:57:50;3.28;;;1.27;;
30420;SDS011;17218;54.070;10.012;2023-04-25T12:00:17;5.70;;;1.30;;
30420;SDS011;17218;54.070;10.012;2023-04-25T12:02:46;5.90;;;1.33;;
30420;SDS011;17218;54.070;10.012;2023-04-25T12:05:15;6.30;;;1.38;;
30420;SDS011;17218;54.070;10.012;2023-04-25T12:07:41;6.25;;;1.30;;
30420;SDS011;17218;54.070;10.012;2023-04-25T12:10:10;5.10;;;1.20;;
30420;SDS011;17218;54.070;10.012;2023-04-25T12:12:38;6.07;;;1.35;;
30420;SDS011;17218;54.070;10.012;2023-04-25T12:15:08;4.53;;;1.08;;
30420;SDS011;17218;54.070;10.012;2023-04-25T12:17:36;2.88;;;1.27;;
30420;SDS011;17218;54.070;10.012;2023-04-25T12:20:05;3.30;;;0.95;;
30420;SDS011;17218;54.070;10.012;2023-04-25T12:22:35;6.38;;;1.67;;
30420;SDS011;17218;54.070;10.012;2023-04-25T12:25:02;6.75;;;1.48;;
30420;SDS011;17218;54.070;10.012;2023-04-25T12:27:30;3.13;;;1.30;;
30420;SDS011;17218;54.070;10.012;2023-04-25T12:29:57;4.00;;;1.50;;
30420;SDS011;17218;54.070;10.012;2023-04-25T12:32:24;5.20;;;1.30;;
30420;SDS011;17218;54.070;10.012;2023-04-25T12:34:51;6.60;;;1.50;;
30420;SDS011;17218;54.070;10.012;2023-04-25T12:37:17;5.57;;;1.45;;
30420;SDS011;17218;54.070;10.012;2023-04-25T12:39:45;4.70;;;1.48;;
30420;SDS011;17218;54.070;10.012;2023-04-25T12:42:12;4.32;;;1.40;;
30420;SDS011;17218;54.070;10.012;2023-04-25T12:44:38;6.00;;;1.83;;
30420;SDS011;17218;54.070;10.012;2023-04-25T12:47:05;5.40;;;1.58;;
30420;SDS011;17218;54.070;10.012;2023-04-25T12:49:32;5.28;;;1.65;;
30420;SDS011;17218;54.070;10.012;2023-04-25T12:51:58;4.32;;;1.70;;
30420;SDS011;17218;54.070;10.012;2023-04-25T12:54:25;5.95;;;1.95;;
30420;SDS011;17218;54.070;10.012;2023-04-25T12:56:52;5.97;;;1.95;;
30420;SDS011;17218;54.070;10.012;2023-04-25T12:59:19;5.35;;;1.30;;
30420;SDS011;17218;54.070;10.012;2023-04-25T13:01:46;6.38;;;1.25;;
30420;SDS011;17218;54.070;10.012;2023-04-25T13:04:12;6.13;;;1.30;;
30420;SDS011;17218;54.070;10.012;2023-04-25T13:06:39;5.28;;;1.67;;
30420;SDS011;17218;54.070;10.012;2023-04-25T13:09:06;3.97;;;1.33;;
30420;SDS011;17218;54.070;10.012;2023-04-25T13:11:33;5.50;;;1.70;;
30420;SDS011;17218;54.070;10.012;2023-04-25T13:14:01;7.78;;;1.80;;
30420;SDS011;17218;54.070;10.012;2023-04-25T13:16:28;7.53;;;2.22;;
30420;SDS011;17218;54.070;10.012;2023-04-25T13:18:54;6.72;;;2.00;;
30420;SDS011;17218;54.070;10.012;2023-04-25T13:21:22;4.53;;;1.60;;
30420;SDS011;17218;54.070;10.012;2023-04-25T13:23:48;3.00;;;1.35;;
30420;SDS011;17218;54.070;10.012;2023-04-25T13:26:15;5.80;;;2.00;;
30420;SDS011;17218;54.070;10.012;2023-04-25T13:28:41;5.93;;;1.48;;
30420;SDS011;17218;54.070;10.012;2023-04-25T13:31:09;6.40;;;2.05;;
30420;SDS011;17218;54.070;10.012;2023-04-25T13:33:35;4.53;;;1.63;;
30420;SDS011;17218;54.070;10.012;2023-04-25T13:36:02;5.43;;;2.03;;
30420;SDS011;17218;54.070;10.012;2023-04-25T13:38:29;8.70;;;1.95;;
30420;SDS011;17218;54.070;10.012;2023-04-25T13:40:55;6.10;;;2.22;;
30420;SDS011;17218;54.070;10.012;2023-04-25T13:43:22;6.60;;;1.60;;
30420;SDS011;17218;54.070;10.012;2023-04-25T13:45:48;4.90;;;1.50;;
30420;SDS011;17218;54.070;10.012;2023-04-25T13:48:17;7.18;;;2.13;;
30420;SDS011;17218;54.070;10.012;2023-04-25T13:50:44;5.97;;;1.58;;
30420;SDS011;17218;54.070;10.012;2023-04-25T13:53:11;7.25;;;2.05;;
30420;SDS011;17218;54.070;10.012;2023-04-25T13:55:38;8.63;;;1.52;;
30420;SDS011;17218;54.070;10.012;2023-04-25T13:58:04;5.25;;;1.52;;
30420;SDS011;17218;54.070;10.012;2023-04-25T14:00:33;5.30;;;1.40;;
30420;SDS011;17218;54.070;10.012;2023-04-25T14:03:00;6.25;;;1.90;;
30420;SDS011;17218;54.070;10.012;2023-04-25T14:05:31;5.78;;;1.77;;
30420;SDS011;17218;54.070;10.012;2023-04-25T14:07:58;4.60;;;1.70;;
30420;SDS011;17218;54.070;10.012;2023-04-25T14:10:24;4.22;;;1.67;;
30420;SDS011;17218;54.070;10.012;2023-04-25T14:12:51;4.53;;;1.85;;
30420;SDS011;17218;54.070;10.012;2023-04-25T14:15:17;4.03;;;1.45;;
30420;SDS011;17218;54.070;10.012;2023-04-25T14:17:45;5.45;;;1.33;;
30420;SDS011;17218;54.070;10.012;2023-04-25T14:20:13;4.50;;;1.70;;
30420;SDS011;17218;54.070;10.012;2023-04-25T14:22:41;4.82;;;1.42;;
30420;SDS011;17218;54.070;10.012;2023-04-25T14:25:08;5.38;;;1.58;;
30420;SDS011;17218;54.070;10.012;2023-04-25T14:27:35;3.78;;;1.30;;
30420;SDS011;17218;54.070;10.012;2023-04-25T14:30:01;3.92;;;1.70;;
30420;SDS011;17218;54.070;10.012;2023-04-25T14:32:29;5.40;;;1.60;;